Norwegian Crown — C6II4 — position and weather

sailwx.info

Track history (hours):
 
Tides and Currents Weather Stations Pressure Air Temp Water Temp Dewpoint Dewpoint Depression Visibility Wind Speed Wind Dir Waves Ship Positions

Norwegian Crown

Operator: Norwegian Cruise Line

Last reported at 2017-Jan-19 17:17 UTC. Time now 2017-Jan-19 21:19 UTC.
Position N 49°04' W 005°07'.

Type: Ship. MMSI: 308785000.

Date/timePositionNaut miles runAvg speedWind from/ knotsBaromVisibWave heightAir tempDewpointWater temp
2017-Jan-19 17:17N 49°04' W 005°07'1114.9
2017-Jan-19 16:33N 48°56' W 005°18'1514.9
2017-Jan-19 15:33N 48°45' W 005°34'56914.9
2017-Jan-18 01:19N 39°47' W 009°51'1515.3
2017-Jan-18 00:21N 39°33' W 009°50'1215.5
2017-Jan-17 23:34N 39°22' W 009°42'10 9.9
2017-Jan-17 22:33N 39°12' W 009°45'1211.7
2017-Jan-17 21:33N 39°00' W 009°43'1312.9
2017-Jan-17 20:33N 38°48' W 009°42'1212.1
2017-Jan-17 19:33N 38°37' W 009°34'1414.4
2017-Jan-17 18:33N 38°41' W 009°16'7 6.8
2017-Jan-17 17:33N 38°43' W 009°07'0 0.0
2017-Jan-17 16:28N 38°43' W 009°07'0 0.0
2017-Jan-17 15:31N 38°43' W 009°07'0 0.0
2017-Jan-17 14:31N 38°43' W 009°07'0 0.0
2017-Jan-17 13:31N 38°43' W 009°07'0 0.0
2017-Jan-17 12:31N 38°43' W 009°07'0 0.0
2017-Jan-17 11:31N 38°43' W 009°07'1 0.6
2017-Jan-17 10:34N 38°42' W 009°08'1211.6
2017-Jan-17 09:34N 38°38' W 009°21'1717.0
2017-Jan-17 08:34N 38°22' W 009°28'1717.1
2017-Jan-17 07:33N 38°05' W 009°33'1716.7
2017-Jan-17 06:31N 37°50' W 009°43'1617.0
2017-Jan-17 05:33N 37°34' W 009°50'1717.2
2017-Jan-17 04:34N 37°18' W 009°57'50814.9
2017-Jan-15 18:28N 29°16' W 013°11'1212.5
2017-Jan-15 17:29N 29°05' W 013°17'1213.2
2017-Jan-15 16:33N 28°58' W 013°29'3 2.5
2017-Jan-15 15:28N 28°58' W 013°32'0 0.0
2017-Jan-15 14:22N 28°58' W 013°32'0 0.0
2017-Jan-15 13:22N 28°58' W 013°32'0 0.0
2017-Jan-15 12:22N 28°58' W 013°32'0 0.0
2017-Jan-15 11:28N 28°58' W 013°32'0 0.0
2017-Jan-15 10:28N 28°58' W 013°32'0 0.0
2017-Jan-15 09:28N 28°58' W 013°32'0 0.0
2017-Jan-15 08:28N 28°58' W 013°32'0 0.0
2017-Jan-15 07:28N 28°58' W 013°32'6 6.1
2017-Jan-15 06:28N 28°52' W 013°35'1313.2
2017-Jan-15 05:31N 28°48' W 013°48'1212.3
2017-Jan-15 04:32N 28°48' W 014°02'1010.4
2017-Jan-15 03:33N 28°45' W 014°13'1310.1
2017-Jan-15 02:12N 28°40' W 014°27'6 9.9
2017-Jan-15 01:34N 28°38' W 014°34'10 9.7
2017-Jan-15 00:34N 28°31' W 014°42'9 9.3
2017-Jan-14 23:34N 28°26' W 014°51'10 9.7
2017-Jan-14 22:34N 28°21' W 015°01'1110.7
2017-Jan-14 21:33N 28°14' W 015°10'1414.2
2017-Jan-14 20:33N 28°07' W 015°24'2 1.7
2017-Jan-14 19:32N 28°08' W 015°25'0 0.0
2017-Jan-14 18:26N 28°08' W 015°25'0 0.0
2017-Jan-14 17:32N 28°08' W 015°25'0 0.0
2017-Jan-14 16:32N 28°08' W 015°25'0 0.0
2017-Jan-14 15:32N 28°08' W 015°25'0 0.0
2017-Jan-14 14:32N 28°08' W 015°25'0 0.0
2017-Jan-14 13:32N 28°08' W 015°25'0 0.0
2017-Jan-14 12:32N 28°08' W 015°25'0 0.0
2017-Jan-14 11:32N 28°08' W 015°25'0 0.0
2017-Jan-14 10:26N 28°08' W 015°25'0 0.0
2017-Jan-14 09:32N 28°08' W 015°25'0 0.0
2017-Jan-14 08:32N 28°08' W 015°25'0 0.0
2017-Jan-14 07:32N 28°08' W 015°25'3 2.7
2017-Jan-14 06:33N 28°07' W 015°22'8 8.2
2017-Jan-14 05:34N 28°15' W 015°19'1010.3
2017-Jan-14 04:34N 28°24' W 015°24'10 9.8
2017-Jan-14 03:33N 28°26' W 015°35'32 8.1
2017-Jan-13 23:34N 28°27' W 016°12'2 2.3
2017-Jan-13 22:31N 28°28' W 016°14'0 0.0
2017-Jan-13 21:31N 28°28' W 016°14'0 0.0
2017-Jan-13 20:31N 28°28' W 016°14'0 0.0
2017-Jan-13 19:22N 28°28' W 016°14'0 0.0
2017-Jan-13 18:25N 28°28' W 016°14'0 0.0
2017-Jan-13 17:25N 28°28' W 016°14'0 0.0
2017-Jan-13 16:22N 28°28' W 016°14'0 0.0
2017-Jan-13 15:28N 28°28' W 016°14'0 0.0
2017-Jan-13 14:28N 28°28' W 016°14'0 0.0
2017-Jan-13 13:16N 28°28' W 016°14'0 0.0
2017-Jan-13 12:31N 28°28' W 016°14'0 0.0
2017-Jan-13 11:31N 28°28' W 016°14'0 0.0
2017-Jan-13 10:28N 28°28' W 016°14'0 0.0
2017-Jan-13 09:31N 28°28' W 016°14'  
2017-Jan-10 05:30N 38°31' W 013°26'1716.6
2017-Jan-10 04:29N 38°47' W 013°18'4716.2
2017-Jan-10 01:33N 39°32' W 012°59'2216.6
2017-Jan-10 00:14N 39°51' W 012°44'1116.9
2017-Jan-09 23:34N 40°01' W 012°39'1716.8
2017-Jan-09 22:33N 40°17' W 012°31'  
Track history (hours):
 
Tides and Currents Weather Stations Pressure Air Temp Water Temp Dewpoint Dewpoint Depression Visibility Wind Speed Wind Dir Waves Ship Positions

Norwegian Crown

Operator: Norwegian Cruise Line

Last reported at 2017-Jan-19 17:17 UTC. Time now 2017-Jan-19 21:19 UTC.
Position N 49°04' W 005°07'.

Type: Ship. MMSI: 308785000.

Date/timePositionNaut miles runAvg speedWind from/ knotsBaromVisibWave heightAir tempDewpointWater temp
2017-Jan-19 17:17N 49°04' W 005°07'1114.9
2017-Jan-19 16:33N 48°56' W 005°18'1514.9
2017-Jan-19 15:33N 48°45' W 005°34'56914.9
2017-Jan-18 01:19N 39°47' W 009°51'1515.3
2017-Jan-18 00:21N 39°33' W 009°50'1215.5
2017-Jan-17 23:34N 39°22' W 009°42'10 9.9
2017-Jan-17 22:33N 39°12' W 009°45'1211.7
2017-Jan-17 21:33N 39°00' W 009°43'1312.9
2017-Jan-17 20:33N 38°48' W 009°42'1212.1
2017-Jan-17 19:33N 38°37' W 009°34'1414.4
2017-Jan-17 18:33N 38°41' W 009°16'7 6.8
2017-Jan-17 17:33N 38°43' W 009°07'0 0.0
2017-Jan-17 16:28N 38°43' W 009°07'0 0.0
2017-Jan-17 15:31N 38°43' W 009°07'0 0.0
2017-Jan-17 14:31N 38°43' W 009°07'0 0.0
2017-Jan-17 13:31N 38°43' W 009°07'0 0.0
2017-Jan-17 12:31N 38°43' W 009°07'0 0.0
2017-Jan-17 11:31N 38°43' W 009°07'1 0.6
2017-Jan-17 10:34N 38°42' W 009°08'1211.6
2017-Jan-17 09:34N 38°38' W 009°21'1717.0
2017-Jan-17 08:34N 38°22' W 009°28'1717.1
2017-Jan-17 07:33N 38°05' W 009°33'1716.7
2017-Jan-17 06:31N 37°50' W 009°43'1617.0
2017-Jan-17 05:33N 37°34' W 009°50'1717.2
2017-Jan-17 04:34N 37°18' W 009°57'50814.9
2017-Jan-15 18:28N 29°16' W 013°11'1212.5
2017-Jan-15 17:29N 29°05' W 013°17'1213.2
2017-Jan-15 16:33N 28°58' W 013°29'3 2.5
2017-Jan-15 15:28N 28°58' W 013°32'0 0.0
2017-Jan-15 14:22N 28°58' W 013°32'0 0.0
2017-Jan-15 13:22N 28°58' W 013°32'0 0.0
2017-Jan-15 12:22N 28°58' W 013°32'0 0.0
2017-Jan-15 11:28N 28°58' W 013°32'0 0.0
2017-Jan-15 10:28N 28°58' W 013°32'0 0.0
2017-Jan-15 09:28N 28°58' W 013°32'0 0.0
2017-Jan-15 08:28N 28°58' W 013°32'0 0.0
2017-Jan-15 07:28N 28°58' W 013°32'6 6.1
2017-Jan-15 06:28N 28°52' W 013°35'1313.2
2017-Jan-15 05:31N 28°48' W 013°48'1212.3
2017-Jan-15 04:32N 28°48' W 014°02'1010.4
2017-Jan-15 03:33N 28°45' W 014°13'1310.1
2017-Jan-15 02:12N 28°40' W 014°27'6 9.9
2017-Jan-15 01:34N 28°38' W 014°34'10 9.7
2017-Jan-15 00:34N 28°31' W 014°42'9 9.3
2017-Jan-14 23:34N 28°26' W 014°51'10 9.7
2017-Jan-14 22:34N 28°21' W 015°01'1110.7
2017-Jan-14 21:33N 28°14' W 015°10'1414.2
2017-Jan-14 20:33N 28°07' W 015°24'2 1.7
2017-Jan-14 19:32N 28°08' W 015°25'0 0.0
2017-Jan-14 18:26N 28°08' W 015°25'0 0.0
2017-Jan-14 17:32N 28°08' W 015°25'0 0.0
2017-Jan-14 16:32N 28°08' W 015°25'0 0.0
2017-Jan-14 15:32N 28°08' W 015°25'0 0.0
2017-Jan-14 14:32N 28°08' W 015°25'0 0.0
2017-Jan-14 13:32N 28°08' W 015°25'0 0.0
2017-Jan-14 12:32N 28°08' W 015°25'0 0.0
2017-Jan-14 11:32N 28°08' W 015°25'0 0.0
2017-Jan-14 10:26N 28°08' W 015°25'0 0.0
2017-Jan-14 09:32N 28°08' W 015°25'0 0.0
2017-Jan-14 08:32N 28°08' W 015°25'0 0.0
2017-Jan-14 07:32N 28°08' W 015°25'3 2.7
2017-Jan-14 06:33N 28°07' W 015°22'8 8.2
2017-Jan-14 05:34N 28°15' W 015°19'1010.3
2017-Jan-14 04:34N 28°24' W 015°24'10 9.8
2017-Jan-14 03:33N 28°26' W 015°35'32 8.1
2017-Jan-13 23:34N 28°27' W 016°12'2 2.3
2017-Jan-13 22:31N 28°28' W 016°14'0 0.0
2017-Jan-13 21:31N 28°28' W 016°14'0 0.0
2017-Jan-13 20:31N 28°28' W 016°14'0 0.0
2017-Jan-13 19:22N 28°28' W 016°14'0 0.0
2017-Jan-13 18:25N 28°28' W 016°14'0 0.0
2017-Jan-13 17:25N 28°28' W 016°14'0 0.0
2017-Jan-13 16:22N 28°28' W 016°14'0 0.0
2017-Jan-13 15:28N 28°28' W 016°14'0 0.0
2017-Jan-13 14:28N 28°28' W 016°14'0 0.0
2017-Jan-13 13:16N 28°28' W 016°14'0 0.0
2017-Jan-13 12:31N 28°28' W 016°14'0 0.0
2017-Jan-13 11:31N 28°28' W 016°14'0 0.0
2017-Jan-13 10:28N 28°28' W 016°14'0 0.0
2017-Jan-13 09:31N 28°28' W 016°14'  
2017-Jan-10 05:30N 38°31' W 013°26'1716.6
2017-Jan-10 04:29N 38°47' W 013°18'4716.2
2017-Jan-10 01:33N 39°32' W 012°59'2216.6
2017-Jan-10 00:14N 39°51' W 012°44'1116.9
2017-Jan-09 23:34N 40°01' W 012°39'1716.8
2017-Jan-09 22:33N 40°17' W 012°31'  

Dump ship's entire track history